Terminal Aerodrome Forecast
Issued by NWS Pendleton, OR

Home | Current Version | Previous Version | Text Only | Print | Product List | Glossary On
Versions: 1 2 3 4 5 6 7 8 9 10 11 12 13
000
FTUS46 KPDT 300540
TAFPDT
TAF
KPDT 300540Z 3006/0106 26007KT P6SM FEW040 BKN080
     FM300800 26009KT P6SM -RA OVC050
     FM301500 25018G28KT P6SM FEW050 BKN100
     FM301800 26022G32KT P6SM FEW050 SCT250
     FM010200 25010KT P6SM SCT100=

USA.gov is the U.S. government's official web portal to all federal, state and local government web resources and services.